sensor_id;sensor_type;location;lat;lon;timestamp;temperature;humidity
25346;DHT22;13300;51.032;3.710;2022-11-27T00:02:09;7.30;99.90
25346;DHT22;13300;51.032;3.710;2022-11-27T00:04:35;7.30;99.90
25346;DHT22;13300;51.032;3.710;2022-11-27T00:07:00;7.30;99.90
25346;DHT22;13300;51.032;3.710;2022-11-27T00:09:26;7.30;99.90
25346;DHT22;13300;51.032;3.710;2022-11-27T00:11:52;7.30;99.90
25346;DHT22;13300;51.032;3.710;2022-11-27T00:14:17;7.30;99.90
25346;DHT22;13300;51.032;3.710;2022-11-27T00:16:43;7.30;99.90
25346;DHT22;13300;51.032;3.710;2022-11-27T00:19:09;7.30;99.90
25346;DHT22;13300;51.032;3.710;2022-11-27T00:21:35;7.30;99.90
25346;DHT22;13300;51.032;3.710;2022-11-27T00:24:01;7.30;99.90
25346;DHT22;13300;51.032;3.710;2022-11-27T00:26:28;7.40;99.90
25346;DHT22;13300;51.032;3.710;2022-11-27T00:28:54;7.30;99.90
25346;DHT22;13300;51.032;3.710;2022-11-27T00:31:29;7.30;99.90
25346;DHT22;13300;51.032;3.710;2022-11-27T00:33:56;7.30;99.90
25346;DHT22;13300;51.032;3.710;2022-11-27T00:36:22;7.30;99.90
25346;DHT22;13300;51.032;3.710;2022-11-27T00:38:48;7.40;99.90
25346;DHT22;13300;51.032;3.710;2022-11-27T00:41:15;7.30;99.90
25346;DHT22;13300;51.032;3.710;2022-11-27T00:43:41;7.30;99.90
25346;DHT22;13300;51.032;3.710;2022-11-27T00:46:06;7.40;99.90
25346;DHT22;13300;51.032;3.710;2022-11-27T00:48:32;7.40;99.90
25346;DHT22;13300;51.032;3.710;2022-11-27T00:51:02;7.50;99.90
25346;DHT22;13300;51.032;3.710;2022-11-27T00:53:27;7.40;99.90
25346;DHT22;13300;51.032;3.710;2022-11-27T00:55:54;7.40;99.90
25346;DHT22;13300;51.032;3.710;2022-11-27T00:58:19;7.50;99.90
25346;DHT22;13300;51.032;3.710;2022-11-27T01:00:45;7.50;99.90
25346;DHT22;13300;51.032;3.710;2022-11-27T01:03:12;7.60;99.90
25346;DHT22;13300;51.032;3.710;2022-11-27T01:05:38;7.60;99.90
25346;DHT22;13300;51.032;3.710;2022-11-27T01:08:03;7.60;99.90
25346;DHT22;13300;51.032;3.710;2022-11-27T01:10:29;7.60;99.90
25346;DHT22;13300;51.032;3.710;2022-11-27T01:12:54;7.60;99.90
25346;DHT22;13300;51.032;3.710;2022-11-27T01:15:20;7.60;99.90
25346;DHT22;13300;51.032;3.710;2022-11-27T01:17:46;7.60;99.90
25346;DHT22;13300;51.032;3.710;2022-11-27T01:20:11;7.60;99.90
25346;DHT22;13300;51.032;3.710;2022-11-27T01:22:37;7.50;99.90
25346;DHT22;13300;51.032;3.710;2022-11-27T01:25:03;7.50;99.90
25346;DHT22;13300;51.032;3.710;2022-11-27T01:27:28;7.60;99.90
25346;DHT22;13300;51.032;3.710;2022-11-27T01:29:54;7.60;99.90
25346;DHT22;13300;51.032;3.710;2022-11-27T01:32:19;7.60;99.90
25346;DHT22;13300;51.032;3.710;2022-11-27T01:34:45;7.70;99.90
25346;DHT22;13300;51.032;3.710;2022-11-27T01:37:11;7.70;99.90
25346;DHT22;13300;51.032;3.710;2022-11-27T01:39:36;7.60;99.90
25346;DHT22;13300;51.032;3.710;2022-11-27T01:42:02;7.60;99.90
25346;DHT22;13300;51.032;3.710;2022-11-27T01:46:54;7.60;99.90
25346;DHT22;13300;51.032;3.710;2022-11-27T01:49:25;7.60;99.90
25346;DHT22;13300;51.032;3.710;2022-11-27T01:54:28;7.70;99.90
25346;DHT22;13300;51.032;3.710;2022-11-27T01:56:57;7.70;99.90
25346;DHT22;13300;51.032;3.710;2022-11-27T01:59:23;7.80;99.90
25346;DHT22;13300;51.032;3.710;2022-11-27T02:01:49;7.80;99.90
25346;DHT22;13300;51.032;3.710;2022-11-27T02:04:15;7.80;99.90
25346;DHT22;13300;51.032;3.710;2022-11-27T02:06:42;7.80;99.90
25346;DHT22;13300;51.032;3.710;2022-11-27T02:09:07;7.80;99.90
25346;DHT22;13300;51.032;3.710;2022-11-27T02:11:35;7.90;99.90
25346;DHT22;13300;51.032;3.710;2022-11-27T02:21:53;8.00;99.90
25346;DHT22;13300;51.032;3.710;2022-11-27T02:29:22;8.10;99.90
25346;DHT22;13300;51.032;3.710;2022-11-27T02:37:09;8.10;99.90
25346;DHT22;13300;51.032;3.710;2022-11-27T02:39:39;8.10;99.90
25346;DHT22;13300;51.032;3.710;2022-11-27T02:42:10;8.10;99.90
25346;DHT22;13300;51.032;3.710;2022-11-27T02:44:40;8.00;99.90
25346;DHT22;13300;51.032;3.710;2022-11-27T02:47:06;8.00;99.90
25346;DHT22;13300;51.032;3.710;2022-11-27T02:49:32;8.00;99.90
25346;DHT22;13300;51.032;3.710;2022-11-27T02:51:59;7.90;99.90
25346;DHT22;13300;51.032;3.710;2022-11-27T02:54:28;7.80;99.90
25346;DHT22;13300;51.032;3.710;2022-11-27T02:56:54;7.80;99.90
25346;DHT22;13300;51.032;3.710;2022-11-27T02:59:20;7.80;99.90
25346;DHT22;13300;51.032;3.710;2022-11-27T03:01:54;7.80;99.90
25346;DHT22;13300;51.032;3.710;2022-11-27T03:04:24;7.80;99.90
25346;DHT22;13300;51.032;3.710;2022-11-27T03:06:53;7.80;99.90
25346;DHT22;13300;51.032;3.710;2022-11-27T03:09:33;7.80;99.90
25346;DHT22;13300;51.032;3.710;2022-11-27T03:11:59;7.70;99.90
25346;DHT22;13300;51.032;3.710;2022-11-27T03:14:25;7.70;99.90
25346;DHT22;13300;51.032;3.710;2022-11-27T03:17:15;7.70;99.90
25346;DHT22;13300;51.032;3.710;2022-11-27T03:19:47;7.70;99.90
25346;DHT22;13300;51.032;3.710;2022-11-27T03:22:14;7.70;99.90
25346;DHT22;13300;51.032;3.710;2022-11-27T03:24:40;7.60;99.90
25346;DHT22;13300;51.032;3.710;2022-11-27T03:27:06;7.70;99.90
25346;DHT22;13300;51.032;3.710;2022-11-27T03:29:35;7.60;99.90
25346;DHT22;13300;51.032;3.710;2022-11-27T03:32:01;7.60;99.90
25346;DHT22;13300;51.032;3.710;2022-11-27T03:34:27;7.60;99.90
25346;DHT22;13300;51.032;3.710;2022-11-27T03:36:53;7.60;99.90
25346;DHT22;13300;51.032;3.710;2022-11-27T03:39:19;7.50;99.90
25346;DHT22;13300;51.032;3.710;2022-11-27T03:44:31;7.50;99.90
25346;DHT22;13300;51.032;3.710;2022-11-27T03:52:07;7.40;99.90
25346;DHT22;13300;51.032;3.710;2022-11-27T03:54:49;7.40;99.90
25346;DHT22;13300;51.032;3.710;2022-11-27T03:57:18;7.40;99.90
25346;DHT22;13300;51.032;3.710;2022-11-27T03:59:45;7.40;99.90
25346;DHT22;13300;51.032;3.710;2022-11-27T04:02:12;7.40;99.90
25346;DHT22;13300;51.032;3.710;2022-11-27T04:04:38;7.40;99.90
25346;DHT22;13300;51.032;3.710;2022-11-27T04:07:03;7.40;99.90
25346;DHT22;13300;51.032;3.710;2022-11-27T04:09:29;7.40;99.90
25346;DHT22;13300;51.032;3.710;2022-11-27T04:11:54;7.40;99.90
25346;DHT22;13300;51.032;3.710;2022-11-27T04:14:20;7.40;99.90
25346;DHT22;13300;51.032;3.710;2022-11-27T04:16:45;7.40;99.90
25346;DHT22;13300;51.032;3.710;2022-11-27T04:19:11;7.40;99.90
25346;DHT22;13300;51.032;3.710;2022-11-27T04:21:37;7.30;99.90
25346;DHT22;13300;51.032;3.710;2022-11-27T04:24:02;7.20;99.90
25346;DHT22;13300;51.032;3.710;2022-11-27T04:26:28;7.20;99.90
25346;DHT22;13300;51.032;3.710;2022-11-27T04:28:53;7.20;99.90
25346;DHT22;13300;51.032;3.710;2022-11-27T04:31:20;7.30;99.90
25346;DHT22;13300;51.032;3.710;2022-11-27T04:33:46;7.20;99.90
25346;DHT22;13300;51.032;3.710;2022-11-27T04:36:11;7.20;99.90
25346;DHT22;13300;51.032;3.710;2022-11-27T04:38:37;7.10;99.90
25346;DHT22;13300;51.032;3.710;2022-11-27T04:41:02;7.10;99.90
25346;DHT22;13300;51.032;3.710;2022-11-27T04:43:28;7.10;99.90
25346;DHT22;13300;51.032;3.710;2022-11-27T04:45:54;7.10;99.90
25346;DHT22;13300;51.032;3.710;2022-11-27T04:48:19;7.10;99.90
25346;DHT22;13300;51.032;3.710;2022-11-27T04:50:45;7.10;99.90
25346;DHT22;13300;51.032;3.710;2022-11-27T04:53:10;7.00;99.90
25346;DHT22;13300;51.032;3.710;2022-11-27T04:55:36;7.00;99.90
25346;DHT22;13300;51.032;3.710;2022-11-27T04:58:02;7.00;99.90
25346;DHT22;13300;51.032;3.710;2022-11-27T05:00:27;7.00;99.90
25346;DHT22;13300;51.032;3.710;2022-11-27T05:02:53;7.00;99.90
25346;DHT22;13300;51.032;3.710;2022-11-27T05:05:18;7.00;99.90
25346;DHT22;13300;51.032;3.710;2022-11-27T05:07:44;7.00;99.90
25346;DHT22;13300;51.032;3.710;2022-11-27T05:10:09;7.00;99.90
25346;DHT22;13300;51.032;3.710;2022-11-27T05:12:35;7.00;99.90
25346;DHT22;13300;51.032;3.710;2022-11-27T05:15:01;6.90;99.90
25346;DHT22;13300;51.032;3.710;2022-11-27T05:17:26;7.00;99.90
25346;DHT22;13300;51.032;3.710;2022-11-27T05:19:52;7.00;99.90
25346;DHT22;13300;51.032;3.710;2022-11-27T05:22:17;7.00;99.90
25346;DHT22;13300;51.032;3.710;2022-11-27T05:24:43;7.00;99.90
25346;DHT22;13300;51.032;3.710;2022-11-27T05:27:08;7.00;99.90
25346;DHT22;13300;51.032;3.710;2022-11-27T05:29:34;7.00;99.90
25346;DHT22;13300;51.032;3.710;2022-11-27T05:32:00;7.00;99.90
25346;DHT22;13300;51.032;3.710;2022-11-27T05:34:25;7.00;99.90
25346;DHT22;13300;51.032;3.710;2022-11-27T05:36:51;7.00;99.90
25346;DHT22;13300;51.032;3.710;2022-11-27T05:39:16;7.00;99.90
25346;DHT22;13300;51.032;3.710;2022-11-27T05:41:42;7.00;99.90
25346;DHT22;13300;51.032;3.710;2022-11-27T05:44:14;7.00;99.90
25346;DHT22;13300;51.032;3.710;2022-11-27T05:46:39;7.10;99.90
25346;DHT22;13300;51.032;3.710;2022-11-27T05:49:09;7.20;99.90
25346;DHT22;13300;51.032;3.710;2022-11-27T05:51:34;7.10;99.90
25346;DHT22;13300;51.032;3.710;2022-11-27T05:54:00;7.10;99.90
25346;DHT22;13300;51.032;3.710;2022-11-27T05:56:26;7.10;99.90
25346;DHT22;13300;51.032;3.710;2022-11-27T05:58:51;7.00;99.90
25346;DHT22;13300;51.032;3.710;2022-11-27T06:01:17;7.00;99.90
25346;DHT22;13300;51.032;3.710;2022-11-27T06:03:42;7.10;99.90
25346;DHT22;13300;51.032;3.710;2022-11-27T06:06:14;7.10;99.90
25346;DHT22;13300;51.032;3.710;2022-11-27T06:08:40;7.00;99.90
25346;DHT22;13300;51.032;3.710;2022-11-27T06:11:07;7.00;99.90
25346;DHT22;13300;51.032;3.710;2022-11-27T06:13:33;6.90;99.90
25346;DHT22;13300;51.032;3.710;2022-11-27T06:16:02;7.00;99.90
25346;DHT22;13300;51.032;3.710;2022-11-27T06:18:28;7.10;99.90
25346;DHT22;13300;51.032;3.710;2022-11-27T06:20:53;7.10;99.90
25346;DHT22;13300;51.032;3.710;2022-11-27T06:23:19;7.00;99.90
25346;DHT22;13300;51.032;3.710;2022-11-27T06:25:46;7.00;99.90
25346;DHT22;13300;51.032;3.710;2022-11-27T06:28:12;7.00;99.90
25346;DHT22;13300;51.032;3.710;2022-11-27T06:30:37;6.90;99.90
25346;DHT22;13300;51.032;3.710;2022-11-27T06:33:03;6.90;99.90
25346;DHT22;13300;51.032;3.710;2022-11-27T06:35:28;6.90;99.90
25346;DHT22;13300;51.032;3.710;2022-11-27T06:37:54;6.90;99.90
25346;DHT22;13300;51.032;3.710;2022-11-27T06:40:19;6.90;99.90
25346;DHT22;13300;51.032;3.710;2022-11-27T06:42:45;7.00;99.90
25346;DHT22;13300;51.032;3.710;2022-11-27T06:45:10;6.90;99.90
25346;DHT22;13300;51.032;3.710;2022-11-27T06:47:36;7.00;99.90
25346;DHT22;13300;51.032;3.710;2022-11-27T06:50:02;7.00;99.90
25346;DHT22;13300;51.032;3.710;2022-11-27T06:52:27;7.00;99.90
25346;DHT22;13300;51.032;3.710;2022-11-27T06:54:54;7.10;99.90
25346;DHT22;13300;51.032;3.710;2022-11-27T06:57:20;7.00;99.90
25346;DHT22;13300;51.032;3.710;2022-11-27T06:59:46;7.10;99.90
25346;DHT22;13300;51.032;3.710;2022-11-27T07:02:14;7.10;99.90
25346;DHT22;13300;51.032;3.710;2022-11-27T07:04:40;7.00;99.90
25346;DHT22;13300;51.032;3.710;2022-11-27T07:07:05;7.00;99.90
25346;DHT22;13300;51.032;3.710;2022-11-27T07:09:31;7.00;99.90
25346;DHT22;13300;51.032;3.710;2022-11-27T07:11:56;7.10;99.90
25346;DHT22;13300;51.032;3.710;2022-11-27T07:14:22;7.00;99.90
25346;DHT22;13300;51.032;3.710;2022-11-27T07:16:47;7.00;99.90
25346;DHT22;13300;51.032;3.710;2022-11-27T07:19:13;6.90;99.90
25346;DHT22;13300;51.032;3.710;2022-11-27T07:21:39;6.90;99.90
25346;DHT22;13300;51.032;3.710;2022-11-27T07:24:04;7.00;99.90
25346;DHT22;13300;51.032;3.710;2022-11-27T07:26:30;6.90;99.90
25346;DHT22;13300;51.032;3.710;2022-11-27T07:28:56;6.90;99.90
25346;DHT22;13300;51.032;3.710;2022-11-27T07:31:22;6.90;99.90
25346;DHT22;13300;51.032;3.710;2022-11-27T07:33:48;6.90;99.90
25346;DHT22;13300;51.032;3.710;2022-11-27T07:36:17;6.90;99.90
25346;DHT22;13300;51.032;3.710;2022-11-27T07:38:43;6.90;99.90
25346;DHT22;13300;51.032;3.710;2022-11-27T07:41:09;6.90;99.90
25346;DHT22;13300;51.032;3.710;2022-11-27T07:43:34;7.00;99.90
25346;DHT22;13300;51.032;3.710;2022-11-27T07:46:04;6.90;99.90
25346;DHT22;13300;51.032;3.710;2022-11-27T07:48:30;7.00;99.90
25346;DHT22;13300;51.032;3.710;2022-11-27T07:50:55;7.00;99.90
25346;DHT22;13300;51.032;3.710;2022-11-27T07:53:21;7.00;99.90
25346;DHT22;13300;51.032;3.710;2022-11-27T07:55:46;6.90;99.90
25346;DHT22;13300;51.032;3.710;2022-11-27T07:58:12;6.90;99.90
25346;DHT22;13300;51.032;3.710;2022-11-27T08:00:38;6.90;99.90
25346;DHT22;13300;51.032;3.710;2022-11-27T08:03:03;6.90;99.90
25346;DHT22;13300;51.032;3.710;2022-11-27T08:05:29;7.00;99.90
25346;DHT22;13300;51.032;3.710;2022-11-27T08:07:54;7.00;99.90
25346;DHT22;13300;51.032;3.710;2022-11-27T08:10:20;6.90;99.90
25346;DHT22;13300;51.032;3.710;2022-11-27T08:12:46;6.90;99.90
25346;DHT22;13300;51.032;3.710;2022-11-27T08:15:14;7.00;99.90
25346;DHT22;13300;51.032;3.710;2022-11-27T08:17:40;6.90;99.90
25346;DHT22;13300;51.032;3.710;2022-11-27T08:20:05;7.00;99.90
25346;DHT22;13300;51.032;3.710;2022-11-27T08:22:31;6.90;99.90
25346;DHT22;13300;51.032;3.710;2022-11-27T08:24:57;6.90;99.90
25346;DHT22;13300;51.032;3.710;2022-11-27T08:27:22;6.90;99.90
25346;DHT22;13300;51.032;3.710;2022-11-27T08:29:48;6.90;99.90
25346;DHT22;13300;51.032;3.710;2022-11-27T08:32:14;7.00;99.90
25346;DHT22;13300;51.032;3.710;2022-11-27T08:34:39;7.00;99.90
25346;DHT22;13300;51.032;3.710;2022-11-27T08:37:05;7.10;99.90
25346;DHT22;13300;51.032;3.710;2022-11-27T08:39:31;7.00;99.90
25346;DHT22;13300;51.032;3.710;2022-11-27T08:41:56;7.00;99.90
25346;DHT22;13300;51.032;3.710;2022-11-27T08:44:22;7.00;99.90
25346;DHT22;13300;51.032;3.710;2022-11-27T08:46:50;7.00;99.90
25346;DHT22;13300;51.032;3.710;2022-11-27T08:49:15;7.00;99.90
25346;DHT22;13300;51.032;3.710;2022-11-27T08:51:41;7.00;99.90
25346;DHT22;13300;51.032;3.710;2022-11-27T08:54:09;7.00;99.90
25346;DHT22;13300;51.032;3.710;2022-11-27T08:56:35;7.00;99.90
25346;DHT22;13300;51.032;3.710;2022-11-27T08:59:00;7.00;99.90
25346;DHT22;13300;51.032;3.710;2022-11-27T09:01:27;7.00;99.90
25346;DHT22;13300;51.032;3.710;2022-11-27T09:03:54;6.90;99.90
25346;DHT22;13300;51.032;3.710;2022-11-27T09:06:23;7.00;99.90
25346;DHT22;13300;51.032;3.710;2022-11-27T09:08:49;6.90;99.90
25346;DHT22;13300;51.032;3.710;2022-11-27T09:11:22;6.90;99.90
25346;DHT22;13300;51.032;3.710;2022-11-27T09:13:48;7.00;99.90
25346;DHT22;13300;51.032;3.710;2022-11-27T09:16:14;6.90;99.90
25346;DHT22;13300;51.032;3.710;2022-11-27T09:18:42;6.90;99.90
25346;DHT22;13300;51.032;3.710;2022-11-27T09:21:09;7.00;99.90
25346;DHT22;13300;51.032;3.710;2022-11-27T09:23:35;7.00;99.90
25346;DHT22;13300;51.032;3.710;2022-11-27T09:26:03;7.00;99.90
25346;DHT22;13300;51.032;3.710;2022-11-27T09:28:29;7.20;99.90
25346;DHT22;13300;51.032;3.710;2022-11-27T09:30:56;7.10;99.90
25346;DHT22;13300;51.032;3.710;2022-11-27T09:33:22;7.10;99.90
25346;DHT22;13300;51.032;3.710;2022-11-27T09:35:51;7.10;99.90
25346;DHT22;13300;51.032;3.710;2022-11-27T09:38:17;7.10;99.90
25346;DHT22;13300;51.032;3.710;2022-11-27T09:40:50;7.10;99.90
25346;DHT22;13300;51.032;3.710;2022-11-27T09:43:17;7.20;99.90
25346;DHT22;13300;51.032;3.710;2022-11-27T09:45:47;7.20;99.90
25346;DHT22;13300;51.032;3.710;2022-11-27T09:48:17;7.10;99.90
25346;DHT22;13300;51.032;3.710;2022-11-27T09:51:05;7.10;99.90
25346;DHT22;13300;51.032;3.710;2022-11-27T09:56:11;7.30;99.90
25346;DHT22;13300;51.032;3.710;2022-11-27T09:58:41;7.10;99.90
25346;DHT22;13300;51.032;3.710;2022-11-27T10:01:11;7.20;99.90
25346;DHT22;13300;51.032;3.710;2022-11-27T10:03:41;7.10;99.90
25346;DHT22;13300;51.032;3.710;2022-11-27T10:17:09;7.20;99.90
25346;DHT22;13300;51.032;3.710;2022-11-27T10:22:14;7.20;99.90
25346;DHT22;13300;51.032;3.710;2022-11-27T10:24:55;7.20;99.90
25346;DHT22;13300;51.032;3.710;2022-11-27T10:27:43;7.30;99.90
25346;DHT22;13300;51.032;3.710;2022-11-27T10:30:15;7.30;99.90
25346;DHT22;13300;51.032;3.710;2022-11-27T10:32:42;7.30;99.90
25346;DHT22;13300;51.032;3.710;2022-11-27T10:35:18;7.40;99.90
25346;DHT22;13300;51.032;3.710;2022-11-27T10:37:50;7.40;99.90
25346;DHT22;13300;51.032;3.710;2022-11-27T10:40:24;7.50;99.90
25346;DHT22;13300;51.032;3.710;2022-11-27T10:48:01;7.40;99.90
25346;DHT22;13300;51.032;3.710;2022-11-27T10:50:26;7.60;99.90
25346;DHT22;13300;51.032;3.710;2022-11-27T10:52:54;7.60;99.90
25346;DHT22;13300;51.032;3.710;2022-11-27T10:55:35;7.40;99.90
25346;DHT22;13300;51.032;3.710;2022-11-27T10:58:05;7.60;99.90
25346;DHT22;13300;51.032;3.710;2022-11-27T11:00:33;7.70;99.90
25346;DHT22;13300;51.032;3.710;2022-11-27T11:03:02;7.60;99.90
25346;DHT22;13300;51.032;3.710;2022-11-27T11:05:28;7.50;99.90
25346;DHT22;13300;51.032;3.710;2022-11-27T11:07:55;7.50;99.90
25346;DHT22;13300;51.032;3.710;2022-11-27T11:10:35;7.40;99.90
25346;DHT22;13300;51.032;3.710;2022-11-27T11:13:05;7.50;99.90
25346;DHT22;13300;51.032;3.710;2022-11-27T11:15:32;7.50;99.90
25346;DHT22;13300;51.032;3.710;2022-11-27T11:18:15;7.60;99.90
25346;DHT22;13300;51.032;3.710;2022-11-27T11:20:42;7.50;99.90
25346;DHT22;13300;51.032;3.710;2022-11-27T11:23:28;7.50;99.90
25346;DHT22;13300;51.032;3.710;2022-11-27T11:25:56;7.60;99.90
25346;DHT22;13300;51.032;3.710;2022-11-27T11:28:22;7.60;99.90
25346;DHT22;13300;51.032;3.710;2022-11-27T11:31:08;7.60;99.90
25346;DHT22;13300;51.032;3.710;2022-11-27T11:33:37;7.70;99.90
25346;DHT22;13300;51.032;3.710;2022-11-27T11:36:11;7.70;99.90
25346;DHT22;13300;51.032;3.710;2022-11-27T11:38:40;7.70;99.90
25346;DHT22;13300;51.032;3.710;2022-11-27T11:41:12;7.60;99.90
25346;DHT22;13300;51.032;3.710;2022-11-27T11:46:39;7.60;99.90
25346;DHT22;13300;51.032;3.710;2022-11-27T11:49:06;7.70;99.90
25346;DHT22;13300;51.032;3.710;2022-11-27T12:00:06;7.60;99.90
25346;DHT22;13300;51.032;3.710;2022-11-27T12:13:27;7.70;99.90
25346;DHT22;13300;51.032;3.710;2022-11-27T12:21:19;7.60;99.90
25346;DHT22;13300;51.032;3.710;2022-11-27T12:24:05;7.70;99.90
25346;DHT22;13300;51.032;3.710;2022-11-27T12:29:29;7.80;99.90
25346;DHT22;13300;51.032;3.710;2022-11-27T12:32:06;7.80;99.90
25346;DHT22;13300;51.032;3.710;2022-11-27T12:39:44;7.90;99.90
25346;DHT22;13300;51.032;3.710;2022-11-27T12:44:58;7.90;99.90
25346;DHT22;13300;51.032;3.710;2022-11-27T12:47:46;7.90;99.90
25346;DHT22;13300;51.032;3.710;2022-11-27T12:52:50;7.90;99.90
25346;DHT22;13300;51.032;3.710;2022-11-27T12:55:21;8.10;99.90
25346;DHT22;13300;51.032;3.710;2022-11-27T12:57:48;8.20;99.90
25346;DHT22;13300;51.032;3.710;2022-11-27T13:00:19;8.10;99.90
25346;DHT22;13300;51.032;3.710;2022-11-27T13:05:27;8.10;99.90
25346;DHT22;13300;51.032;3.710;2022-11-27T13:08:01;8.10;99.90
25346;DHT22;13300;51.032;3.710;2022-11-27T13:10:44;8.10;99.90
25346;DHT22;13300;51.032;3.710;2022-11-27T13:13:21;8.00;99.90
25346;DHT22;13300;51.032;3.710;2022-11-27T13:15:57;8.00;99.90
25346;DHT22;13300;51.032;3.710;2022-11-27T13:18:42;7.90;99.90
25346;DHT22;13300;51.032;3.710;2022-11-27T13:21:11;7.90;99.90
25346;DHT22;13300;51.032;3.710;2022-11-27T13:23:37;7.90;99.90
25346;DHT22;13300;51.032;3.710;2022-11-27T13:26:09;7.90;99.90
25346;DHT22;13300;51.032;3.710;2022-11-27T13:28:37;8.00;99.90
25346;DHT22;13300;51.032;3.710;2022-11-27T13:31:05;8.00;99.90
25346;DHT22;13300;51.032;3.710;2022-11-27T13:36:00;7.90;99.90
25346;DHT22;13300;51.032;3.710;2022-11-27T13:38:33;7.80;99.90
25346;DHT22;13300;51.032;3.710;2022-11-27T13:41:04;7.90;99.90
25346;DHT22;13300;51.032;3.710;2022-11-27T13:46:03;8.10;99.90
25346;DHT22;13300;51.032;3.710;2022-11-27T13:48:35;8.10;99.90
25346;DHT22;13300;51.032;3.710;2022-11-27T13:51:02;8.00;99.90
25346;DHT22;13300;51.032;3.710;2022-11-27T13:53:29;8.10;99.90
25346;DHT22;13300;51.032;3.710;2022-11-27T13:55:54;8.10;99.90
25346;DHT22;13300;51.032;3.710;2022-11-27T13:58:28;8.00;99.90
25346;DHT22;13300;51.032;3.710;2022-11-27T14:01:19;7.90;99.90
25346;DHT22;13300;51.032;3.710;2022-11-27T14:03:50;8.00;99.90
25346;DHT22;13300;51.032;3.710;2022-11-27T14:06:27;8.00;99.90
25346;DHT22;13300;51.032;3.710;2022-11-27T14:09:07;8.10;99.90
25346;DHT22;13300;51.032;3.710;2022-11-27T14:11:40;8.00;99.90
25346;DHT22;13300;51.032;3.710;2022-11-27T14:14:21;8.00;99.90
25346;DHT22;13300;51.032;3.710;2022-11-27T14:16:54;8.00;99.90
25346;DHT22;13300;51.032;3.710;2022-11-27T14:19:39;8.10;99.90
25346;DHT22;13300;51.032;3.710;2022-11-27T14:22:14;8.10;99.90
25346;DHT22;13300;51.032;3.710;2022-11-27T14:24:40;8.10;99.90
25346;DHT22;13300;51.032;3.710;2022-11-27T14:27:24;8.10;99.90
25346;DHT22;13300;51.032;3.710;2022-11-27T14:29:57;8.20;99.90
25346;DHT22;13300;51.032;3.710;2022-11-27T14:32:35;8.10;99.90
25346;DHT22;13300;51.032;3.710;2022-11-27T14:35:17;8.10;99.90
25346;DHT22;13300;51.032;3.710;2022-11-27T14:37:43;8.10;99.90
25346;DHT22;13300;51.032;3.710;2022-11-27T14:40:12;8.20;99.90
25346;DHT22;13300;51.032;3.710;2022-11-27T14:42:44;8.30;99.90
25346;DHT22;13300;51.032;3.710;2022-11-27T14:45:11;8.30;99.90
25346;DHT22;13300;51.032;3.710;2022-11-27T14:47:53;8.20;99.90
25346;DHT22;13300;51.032;3.710;2022-11-27T14:50:26;8.20;99.90
25346;DHT22;13300;51.032;3.710;2022-11-27T14:52:55;8.20;99.90
25346;DHT22;13300;51.032;3.710;2022-11-27T14:55:24;8.20;99.90
25346;DHT22;13300;51.032;3.710;2022-11-27T14:57:53;8.20;99.90
25346;DHT22;13300;51.032;3.710;2022-11-27T15:00:20;8.20;99.90
25346;DHT22;13300;51.032;3.710;2022-11-27T15:02:48;8.10;99.90
25346;DHT22;13300;51.032;3.710;2022-11-27T15:05:22;8.10;99.90
25346;DHT22;13300;51.032;3.710;2022-11-27T15:07:54;8.10;99.90
25346;DHT22;13300;51.032;3.710;2022-11-27T15:10:25;8.00;99.90
25346;DHT22;13300;51.032;3.710;2022-11-27T15:12:55;8.00;99.90
25346;DHT22;13300;51.032;3.710;2022-11-27T15:15:27;8.00;99.90
25346;DHT22;13300;51.032;3.710;2022-11-27T15:17:55;8.10;99.90
25346;DHT22;13300;51.032;3.710;2022-11-27T15:20:26;8.10;99.90
25346;DHT22;13300;51.032;3.710;2022-11-27T15:23:11;8.20;99.90
25346;DHT22;13300;51.032;3.710;2022-11-27T15:25:42;8.10;99.90
25346;DHT22;13300;51.032;3.710;2022-11-27T15:30:46;8.00;99.90
25346;DHT22;13300;51.032;3.710;2022-11-27T15:33:30;8.00;99.90
25346;DHT22;13300;51.032;3.710;2022-11-27T15:38:38;7.80;99.90
25346;DHT22;13300;51.032;3.710;2022-11-27T15:41:05;7.80;99.90
25346;DHT22;13300;51.032;3.710;2022-11-27T15:43:55;7.90;99.90
25346;DHT22;13300;51.032;3.710;2022-11-27T15:46:29;7.90;99.90
25346;DHT22;13300;51.032;3.710;2022-11-27T15:48:58;7.80;99.90
25346;DHT22;13300;51.032;3.710;2022-11-27T15:51:24;7.70;99.90
25346;DHT22;13300;51.032;3.710;2022-11-27T15:53:49;7.70;99.90
25346;DHT22;13300;51.032;3.710;2022-11-27T15:56:15;7.80;99.90
25346;DHT22;13300;51.032;3.710;2022-11-27T15:58:41;7.80;99.90
25346;DHT22;13300;51.032;3.710;2022-11-27T16:01:10;7.90;99.90
25346;DHT22;13300;51.032;3.710;2022-11-27T16:03:35;7.90;99.90
25346;DHT22;13300;51.032;3.710;2022-11-27T16:06:05;7.80;99.90
25346;DHT22;13300;51.032;3.710;2022-11-27T16:08:31;7.80;99.90
25346;DHT22;13300;51.032;3.710;2022-11-27T16:13:51;7.80;99.90
25346;DHT22;13300;51.032;3.710;2022-11-27T16:16:23;7.80;99.90
25346;DHT22;13300;51.032;3.710;2022-11-27T16:18:49;7.80;99.90
25346;DHT22;13300;51.032;3.710;2022-11-27T16:21:21;7.80;99.90
25346;DHT22;13300;51.032;3.710;2022-11-27T16:24:07;7.90;99.90
25346;DHT22;13300;51.032;3.710;2022-11-27T16:26:44;7.90;99.90
25346;DHT22;13300;51.032;3.710;2022-11-27T16:29:27;7.90;99.90
25346;DHT22;13300;51.032;3.710;2022-11-27T16:31:53;7.90;99.90
25346;DHT22;13300;51.032;3.710;2022-11-27T16:37:57;8.00;99.90
25346;DHT22;13300;51.032;3.710;2022-11-27T16:40:23;8.10;99.90
25346;DHT22;13300;51.032;3.710;2022-11-27T16:42:52;8.00;99.90
25346;DHT22;13300;51.032;3.710;2022-11-27T16:45:17;8.10;99.90
25346;DHT22;13300;51.032;3.710;2022-11-27T16:47:53;8.00;99.90
25346;DHT22;13300;51.032;3.710;2022-11-27T16:50:26;8.00;99.90
25346;DHT22;13300;51.032;3.710;2022-11-27T16:52:53;7.90;99.90
25346;DHT22;13300;51.032;3.710;2022-11-27T16:55:48;7.80;99.90
25346;DHT22;13300;51.032;3.710;2022-11-27T17:01:29;7.70;99.90
25346;DHT22;13300;51.032;3.710;2022-11-27T17:04:06;7.60;99.90
25346;DHT22;13300;51.032;3.710;2022-11-27T17:06:39;7.80;99.90
25346;DHT22;13300;51.032;3.710;2022-11-27T17:09:07;8.10;99.90
25346;DHT22;13300;51.032;3.710;2022-11-27T17:11:47;7.90;99.90
25346;DHT22;13300;51.032;3.710;2022-11-27T17:14:20;7.90;99.90
25346;DHT22;13300;51.032;3.710;2022-11-27T17:17:06;7.80;99.90
25346;DHT22;13300;51.032;3.710;2022-11-27T17:19:32;7.90;99.90
25346;DHT22;13300;51.032;3.710;2022-11-27T17:21:58;7.80;99.90
25346;DHT22;13300;51.032;3.710;2022-11-27T17:24:44;8.00;99.90
25346;DHT22;13300;51.032;3.710;2022-11-27T17:27:09;8.10;99.90
25346;DHT22;13300;51.032;3.710;2022-11-27T17:29:35;8.00;99.90
25346;DHT22;13300;51.032;3.710;2022-11-27T17:32:01;8.00;99.90
25346;DHT22;13300;51.032;3.710;2022-11-27T17:34:29;8.00;99.90
25346;DHT22;13300;51.032;3.710;2022-11-27T17:37:00;7.80;99.90
25346;DHT22;13300;51.032;3.710;2022-11-27T17:39:28;7.80;99.90
25346;DHT22;13300;51.032;3.710;2022-11-27T17:47:59;7.70;99.90
25346;DHT22;13300;51.032;3.710;2022-11-27T17:50:26;7.70;99.90
25346;DHT22;13300;51.032;3.710;2022-11-27T17:52:59;7.70;99.90
25346;DHT22;13300;51.032;3.710;2022-11-27T17:55:28;7.60;99.90
25346;DHT22;13300;51.032;3.710;2022-11-27T17:58:03;7.60;99.90